sensor_id;sensor_type;location;lat;lon;timestamp;pressure;altitude;pressure_sealevel;temperature;humidity
27685;BME280;46113;50.130;8.526;2023-02-11T00:00:40;101017.09;;;-3.12;79.35
27685;BME280;46113;50.130;8.526;2023-02-11T00:03:07;101017.09;;;-3.12;79.53
27685;BME280;46113;50.130;8.526;2023-02-11T00:05:34;101018.47;;;-3.25;80.15
27685;BME280;46113;50.130;8.526;2023-02-11T00:08:01;101011.22;;;-3.05;79.36
27685;BME280;46113;50.130;8.526;2023-02-11T00:10:27;101003.59;;;-3.00;79.21
27685;BME280;46113;50.130;8.526;2023-02-11T00:12:54;101016.59;;;-2.99;79.42
27685;BME280;46113;50.130;8.526;2023-02-11T00:15:21;101016.91;;;-2.86;78.81
27685;BME280;46113;50.130;8.526;2023-02-11T00:17:48;101014.50;;;-2.79;78.47
27685;BME280;46113;50.130;8.526;2023-02-11T00:20:14;101011.75;;;-2.85;78.97
27685;BME280;46113;50.130;8.526;2023-02-11T00:22:43;101011.06;;;-2.79;78.86
27685;BME280;46113;50.130;8.526;2023-02-11T00:25:10;101009.25;;;-2.82;78.93
27685;BME280;46113;50.130;8.526;2023-02-11T00:27:37;101002.09;;;-2.91;79.39
27685;BME280;46113;50.130;8.526;2023-02-11T00:30:04;101011.06;;;-2.79;79.19
27685;BME280;46113;50.130;8.526;2023-02-11T00:32:31;101011.50;;;-2.94;79.38
27685;BME280;46113;50.130;8.526;2023-02-11T00:34:57;101001.69;;;-2.74;78.75
27685;BME280;46113;50.130;8.526;2023-02-11T00:37:24;100998.16;;;-2.76;79.31
27685;BME280;46113;50.130;8.526;2023-02-11T00:39:51;101000.78;;;-2.75;78.89
27685;BME280;46113;50.130;8.526;2023-02-11T00:42:17;100996.50;;;-2.74;79.14
27685;BME280;46113;50.130;8.526;2023-02-11T00:44:44;101001.03;;;-2.65;78.67
27685;BME280;46113;50.130;8.526;2023-02-11T00:47:10;100995.84;;;-2.65;78.57
27685;BME280;46113;50.130;8.526;2023-02-11T00:49:37;100987.88;;;-2.36;77.57
27685;BME280;46113;50.130;8.526;2023-02-11T00:52:06;100989.47;;;-2.43;78.25
27685;BME280;46113;50.130;8.526;2023-02-11T00:54:33;100999.81;;;-2.43;78.30
27685;BME280;46113;50.130;8.526;2023-02-11T00:56:59;100991.91;;;-2.49;77.49
27685;BME280;46113;50.130;8.526;2023-02-11T00:59:26;100980.75;;;-2.45;78.13
27685;BME280;46113;50.130;8.526;2023-02-11T01:01:53;100970.63;;;-2.34;77.25
27685;BME280;46113;50.130;8.526;2023-02-11T01:04:20;100966.47;;;-2.27;77.55
27685;BME280;46113;50.130;8.526;2023-02-11T01:06:46;100977.88;;;-2.57;78.61
27685;BME280;46113;50.130;8.526;2023-02-11T01:09:13;100970.00;;;-2.24;77.36
27685;BME280;46113;50.130;8.526;2023-02-11T01:11:39;100983.38;;;-2.05;76.25
27685;BME280;46113;50.130;8.526;2023-02-11T01:14:07;100972.50;;;-2.27;77.89
27685;BME280;46113;50.130;8.526;2023-02-11T01:16:33;100960.41;;;-2.28;78.58
27685;BME280;46113;50.130;8.526;2023-02-11T01:19:00;100953.19;;;-2.41;79.85
27685;BME280;46113;50.130;8.526;2023-02-11T01:21:27;100944.53;;;-2.42;80.57
27685;BME280;46113;50.130;8.526;2023-02-11T01:23:53;100944.06;;;-2.24;79.76
27685;BME280;46113;50.130;8.526;2023-02-11T01:26:20;100949.09;;;-2.31;81.19
27685;BME280;46113;50.130;8.526;2023-02-11T01:28:47;100944.78;;;-2.31;81.18
27685;BME280;46113;50.130;8.526;2023-02-11T01:31:14;100947.53;;;-2.62;82.45
27685;BME280;46113;50.130;8.526;2023-02-11T01:33:40;100948.19;;;-2.33;82.21
27685;BME280;46113;50.130;8.526;2023-02-11T01:36:09;100941.09;;;-2.78;83.91
27685;BME280;46113;50.130;8.526;2023-02-11T01:38:36;100942.78;;;-2.43;82.98
27685;BME280;46113;50.130;8.526;2023-02-11T01:41:05;100934.94;;;-2.46;82.63
27685;BME280;46113;50.130;8.526;2023-02-11T01:43:44;100928.91;;;-2.46;82.37
27685;BME280;46113;50.130;8.526;2023-02-11T01:46:34;100930.94;;;-2.31;81.56
27685;BME280;46113;50.130;8.526;2023-02-11T01:54:19;100921.72;;;-2.57;83.52
27685;BME280;46113;50.130;8.526;2023-02-11T01:57:06;100921.88;;;-2.51;83.00
27685;BME280;46113;50.130;8.526;2023-02-11T02:02:24;100914.09;;;-2.51;82.68
27685;BME280;46113;50.130;8.526;2023-02-11T02:04:56;100911.38;;;-2.94;85.14
27685;BME280;46113;50.130;8.526;2023-02-11T02:07:32;100896.25;;;-2.77;84.46
27685;BME280;46113;50.130;8.526;2023-02-11T02:10:11;100895.41;;;-2.76;84.92
27685;BME280;46113;50.130;8.526;2023-02-11T02:12:39;100887.50;;;-2.80;84.98
27685;BME280;46113;50.130;8.526;2023-02-11T02:15:29;100893.81;;;-2.69;84.75
27685;BME280;46113;50.130;8.526;2023-02-11T02:18:20;100890.06;;;-2.82;83.86
27685;BME280;46113;50.130;8.526;2023-02-11T02:27:07;100896.47;;;-2.66;84.04
27685;BME280;46113;50.130;8.526;2023-02-11T02:32:56;100903.72;;;-2.89;85.79
27685;BME280;46113;50.130;8.526;2023-02-11T02:35:57;100904.81;;;-2.79;84.86
27685;BME280;46113;50.130;8.526;2023-02-11T02:38:45;100904.41;;;-2.96;85.37
27685;BME280;46113;50.130;8.526;2023-02-11T02:41:23;100903.25;;;-2.71;84.76
27685;BME280;46113;50.130;8.526;2023-02-11T02:43:52;100902.38;;;-3.08;86.11
27685;BME280;46113;50.130;8.526;2023-02-11T02:48:48;100912.69;;;-3.10;86.59
27685;BME280;46113;50.130;8.526;2023-02-11T02:52:00;100912.22;;;-2.93;85.30
27685;BME280;46113;50.130;8.526;2023-02-11T02:55:21;100920.63;;;-3.04;86.05
27685;BME280;46113;50.130;8.526;2023-02-11T02:58:05;100914.78;;;-2.96;85.23
27685;BME280;46113;50.130;8.526;2023-02-11T03:00:52;100916.44;;;-2.98;85.47
27685;BME280;46113;50.130;8.526;2023-02-11T03:04:11;100919.47;;;-3.15;86.02
27685;BME280;46113;50.130;8.526;2023-02-11T03:06:42;100908.22;;;-3.17;86.22
27685;BME280;46113;50.130;8.526;2023-02-11T03:09:28;100900.25;;;-3.25;85.91
27685;BME280;46113;50.130;8.526;2023-02-11T03:11:59;100892.44;;;-3.26;85.49
27685;BME280;46113;50.130;8.526;2023-02-11T03:14:28;100890.09;;;-3.16;85.32
27685;BME280;46113;50.130;8.526;2023-02-11T03:16:57;100884.06;;;-3.16;84.91
27685;BME280;46113;50.130;8.526;2023-02-11T03:19:29;100880.69;;;-3.13;85.40
27685;BME280;46113;50.130;8.526;2023-02-11T03:21:58;100886.75;;;-3.11;83.60
27685;BME280;46113;50.130;8.526;2023-02-11T03:24:33;100871.44;;;-3.02;84.58
27685;BME280;46113;50.130;8.526;2023-02-11T03:27:23;100862.78;;;-3.03;82.84
27685;BME280;46113;50.130;8.526;2023-02-11T03:30:04;100849.94;;;-2.99;82.42
27685;BME280;46113;50.130;8.526;2023-02-11T03:32:41;100831.56;;;-3.09;84.37
27685;BME280;46113;50.130;8.526;2023-02-11T03:35:16;100826.88;;;-2.89;82.24
27685;BME280;46113;50.130;8.526;2023-02-11T03:38:05;100829.38;;;-2.92;82.02
27685;BME280;46113;50.130;8.526;2023-02-11T03:40:38;100822.53;;;-2.90;82.39
27685;BME280;46113;50.130;8.526;2023-02-11T03:43:19;100830.50;;;-2.82;82.00
27685;BME280;46113;50.130;8.526;2023-02-11T03:45:49;100841.13;;;-2.69;80.91
27685;BME280;46113;50.130;8.526;2023-02-11T03:48:25;100830.22;;;-2.53;80.70
27685;BME280;46113;50.130;8.526;2023-02-11T03:50:53;100829.41;;;-2.50;79.82
27685;BME280;46113;50.130;8.526;2023-02-11T03:53:21;100814.78;;;-2.48;79.88
27685;BME280;46113;50.130;8.526;2023-02-11T03:55:50;100811.28;;;-2.50;79.80
27685;BME280;46113;50.130;8.526;2023-02-11T03:58:18;100808.22;;;-2.72;81.45
27685;BME280;46113;50.130;8.526;2023-02-11T04:00:45;100807.56;;;-2.63;81.27
27685;BME280;46113;50.130;8.526;2023-02-11T04:03:12;100805.34;;;-2.44;81.28
27685;BME280;46113;50.130;8.526;2023-02-11T04:05:39;100812.94;;;-2.54;81.50
27685;BME280;46113;50.130;8.526;2023-02-11T04:08:06;100826.91;;;-2.47;81.02
27685;BME280;46113;50.130;8.526;2023-02-11T04:10:33;100821.94;;;-2.36;80.01
27685;BME280;46113;50.130;8.526;2023-02-11T04:13:00;100824.53;;;-2.36;80.65
27685;BME280;46113;50.130;8.526;2023-02-11T04:15:27;100832.16;;;-2.42;80.88
27685;BME280;46113;50.130;8.526;2023-02-11T04:17:53;100839.56;;;-2.19;80.38
27685;BME280;46113;50.130;8.526;2023-02-11T04:20:20;100853.06;;;-2.35;81.05
27685;BME280;46113;50.130;8.526;2023-02-11T04:22:47;100853.88;;;-2.39;81.34
27685;BME280;46113;50.130;8.526;2023-02-11T04:25:13;100853.28;;;-2.25;80.71
27685;BME280;46113;50.130;8.526;2023-02-11T04:27:40;100856.31;;;-2.46;81.43
27685;BME280;46113;50.130;8.526;2023-02-11T04:30:07;100852.19;;;-2.37;81.09
27685;BME280;46113;50.130;8.526;2023-02-11T04:32:34;100848.41;;;-2.51;82.89
27685;BME280;46113;50.130;8.526;2023-02-11T04:35:01;100845.66;;;-2.59;82.59
27685;BME280;46113;50.130;8.526;2023-02-11T04:37:28;100842.97;;;-2.62;82.17
27685;BME280;46113;50.130;8.526;2023-02-11T04:39:55;100849.31;;;-2.51;82.30
27685;BME280;46113;50.130;8.526;2023-02-11T04:42:22;100843.47;;;-2.40;82.14
27685;BME280;46113;50.130;8.526;2023-02-11T04:44:48;100832.13;;;-2.45;82.12
27685;BME280;46113;50.130;8.526;2023-02-11T04:47:15;100818.84;;;-2.61;82.59
27685;BME280;46113;50.130;8.526;2023-02-11T04:49:42;100808.72;;;-2.49;81.63
27685;BME280;46113;50.130;8.526;2023-02-11T04:52:09;100810.84;;;-2.29;81.10
27685;BME280;46113;50.130;8.526;2023-02-11T04:54:35;100803.66;;;-2.42;80.75
27685;BME280;46113;50.130;8.526;2023-02-11T04:57:02;100808.75;;;-2.47;81.72
27685;BME280;46113;50.130;8.526;2023-02-11T04:59:29;100815.19;;;-2.28;82.04
27685;BME280;46113;50.130;8.526;2023-02-11T05:01:56;100813.72;;;-2.15;81.68
27685;BME280;46113;50.130;8.526;2023-02-11T05:04:22;100815.59;;;-2.07;81.17
27685;BME280;46113;50.130;8.526;2023-02-11T05:06:49;100811.28;;;-2.05;80.40
27685;BME280;46113;50.130;8.526;2023-02-11T05:09:16;100820.53;;;-2.20;80.35
27685;BME280;46113;50.130;8.526;2023-02-11T05:11:43;100820.56;;;-2.18;81.31
27685;BME280;46113;50.130;8.526;2023-02-11T05:14:09;100831.00;;;-2.14;80.83
27685;BME280;46113;50.130;8.526;2023-02-11T05:16:36;100832.09;;;-2.04;79.68
27685;BME280;46113;50.130;8.526;2023-02-11T05:19:03;100837.91;;;-2.16;81.44
27685;BME280;46113;50.130;8.526;2023-02-11T05:21:30;100831.16;;;-2.07;80.02
27685;BME280;46113;50.130;8.526;2023-02-11T05:23:57;100830.28;;;-2.08;80.12
27685;BME280;46113;50.130;8.526;2023-02-11T05:26:24;100828.44;;;-2.12;80.08
27685;BME280;46113;50.130;8.526;2023-02-11T05:28:50;100822.84;;;-2.34;81.14
27685;BME280;46113;50.130;8.526;2023-02-11T05:31:17;100821.59;;;-2.10;81.27
27685;BME280;46113;50.130;8.526;2023-02-11T05:33:44;100809.31;;;-2.19;81.02
27685;BME280;46113;50.130;8.526;2023-02-11T05:36:11;100792.06;;;-2.17;79.67
27685;BME280;46113;50.130;8.526;2023-02-11T05:38:39;100798.06;;;-2.19;79.21
27685;BME280;46113;50.130;8.526;2023-02-11T05:41:06;100802.25;;;-2.26;79.22
27685;BME280;46113;50.130;8.526;2023-02-11T05:43:32;100809.31;;;-2.19;79.73
27685;BME280;46113;50.130;8.526;2023-02-11T05:46:02;100823.03;;;-2.25;79.81
27685;BME280;46113;50.130;8.526;2023-02-11T05:48:29;100831.69;;;-2.24;79.81
27685;BME280;46113;50.130;8.526;2023-02-11T05:50:55;100824.66;;;-2.30;80.48
27685;BME280;46113;50.130;8.526;2023-02-11T05:53:22;100816.41;;;-2.53;80.87
27685;BME280;46113;50.130;8.526;2023-02-11T05:55:49;100827.03;;;-2.41;80.39
27685;BME280;46113;50.130;8.526;2023-02-11T05:58:16;100830.25;;;-2.51;81.14
27685;BME280;46113;50.130;8.526;2023-02-11T06:00:43;100822.63;;;-2.45;81.33
27685;BME280;46113;50.130;8.526;2023-02-11T06:03:09;100814.63;;;-2.56;81.32
27685;BME280;46113;50.130;8.526;2023-02-11T06:05:36;100809.66;;;-2.46;81.07
27685;BME280;46113;50.130;8.526;2023-02-11T06:08:02;100813.13;;;-2.44;81.67
27685;BME280;46113;50.130;8.526;2023-02-11T06:10:29;100816.03;;;-2.29;80.55
27685;BME280;46113;50.130;8.526;2023-02-11T06:12:56;100816.97;;;-2.25;78.93
27685;BME280;46113;50.130;8.526;2023-02-11T06:15:22;100810.78;;;-2.33;81.27
27685;BME280;46113;50.130;8.526;2023-02-11T06:17:49;100817.69;;;-2.32;80.77
27685;BME280;46113;50.130;8.526;2023-02-11T06:20:15;100817.84;;;-2.25;79.89
27685;BME280;46113;50.130;8.526;2023-02-11T06:22:42;100822.91;;;-2.31;80.21
27685;BME280;46113;50.130;8.526;2023-02-11T06:25:09;100824.69;;;-2.28;79.28
27685;BME280;46113;50.130;8.526;2023-02-11T06:27:37;100815.94;;;-2.33;79.83
27685;BME280;46113;50.130;8.526;2023-02-11T06:30:05;100818.06;;;-2.12;78.73
27685;BME280;46113;50.130;8.526;2023-02-11T06:32:32;100821.44;;;-2.16;78.08
27685;BME280;46113;50.130;8.526;2023-02-11T06:35:14;100814.13;;;-2.38;78.82
27685;BME280;46113;50.130;8.526;2023-02-11T06:37:41;100812.50;;;-2.32;79.54
27685;BME280;46113;50.130;8.526;2023-02-11T06:40:09;100820.81;;;-2.49;79.37
27685;BME280;46113;50.130;8.526;2023-02-11T06:42:36;100816.56;;;-2.45;79.26
27685;BME280;46113;50.130;8.526;2023-02-11T06:45:05;100799.44;;;-2.37;79.76
27685;BME280;46113;50.130;8.526;2023-02-11T06:47:34;100806.25;;;-2.42;79.12
27685;BME280;46113;50.130;8.526;2023-02-11T06:50:00;100804.63;;;-2.39;79.05
27685;BME280;46113;50.130;8.526;2023-02-11T06:52:27;100806.69;;;-2.20;78.90
27685;BME280;46113;50.130;8.526;2023-02-11T06:54:54;100807.22;;;-2.37;79.41
27685;BME280;46113;50.130;8.526;2023-02-11T06:57:20;100802.91;;;-2.37;78.90
27685;BME280;46113;50.130;8.526;2023-02-11T06:59:47;100810.88;;;-2.27;78.31
27685;BME280;46113;50.130;8.526;2023-02-11T07:02:14;100813.28;;;-2.37;78.75
27685;BME280;46113;50.130;8.526;2023-02-11T07:04:40;100818.19;;;-2.07;78.10
27685;BME280;46113;50.130;8.526;2023-02-11T07:07:07;100816.63;;;-1.98;77.78
27685;BME280;46113;50.130;8.526;2023-02-11T07:09:34;100811.59;;;-1.90;77.41
27685;BME280;46113;50.130;8.526;2023-02-11T07:12:00;100811.34;;;-2.04;77.72
27685;BME280;46113;50.130;8.526;2023-02-11T07:14:27;100821.53;;;-2.13;79.19
27685;BME280;46113;50.130;8.526;2023-02-11T07:16:53;100817.69;;;-1.86;77.00
27685;BME280;46113;50.130;8.526;2023-02-11T07:19:20;100831.13;;;-2.09;77.26
27685;BME280;46113;50.130;8.526;2023-02-11T07:21:47;100822.91;;;-1.85;77.92
27685;BME280;46113;50.130;8.526;2023-02-11T07:24:14;100836.53;;;-1.97;77.29
27685;BME280;46113;50.130;8.526;2023-02-11T07:26:40;100840.50;;;-1.70;76.79
27685;BME280;46113;50.130;8.526;2023-02-11T07:29:07;100840.31;;;-1.80;77.83
27685;BME280;46113;50.130;8.526;2023-02-11T07:31:34;100826.69;;;-1.69;76.96
27685;BME280;46113;50.130;8.526;2023-02-11T07:34:01;100827.66;;;-1.62;75.37
27685;BME280;46113;50.130;8.526;2023-02-11T07:36:29;100829.16;;;-1.24;75.30
27685;BME280;46113;50.130;8.526;2023-02-11T07:38:57;100837.34;;;-0.99;74.12
27685;BME280;46113;50.130;8.526;2023-02-11T07:41:24;100843.25;;;-1.09;74.13
27685;BME280;46113;50.130;8.526;2023-02-11T07:43:51;100830.94;;;-1.21;74.58
27685;BME280;46113;50.130;8.526;2023-02-11T07:46:21;100836.56;;;-0.92;74.47
27685;BME280;46113;50.130;8.526;2023-02-11T07:48:54;100838.91;;;-1.09;74.52
27685;BME280;46113;50.130;8.526;2023-02-11T07:51:29;100836.16;;;-1.20;74.50
27685;BME280;46113;50.130;8.526;2023-02-11T07:53:57;100843.72;;;-0.78;72.60
27685;BME280;46113;50.130;8.526;2023-02-11T07:56:24;100852.53;;;-0.67;73.53
27685;BME280;46113;50.130;8.526;2023-02-11T07:58:51;100850.38;;;-0.94;72.74
27685;BME280;46113;50.130;8.526;2023-02-11T08:01:21;100875.03;;;-0.69;72.13
27685;BME280;46113;50.130;8.526;2023-02-11T08:03:50;100868.66;;;-0.88;72.49
27685;BME280;46113;50.130;8.526;2023-02-11T08:06:20;100881.91;;;-0.74;72.89
27685;BME280;46113;50.130;8.526;2023-02-11T08:08:47;100872.78;;;-0.42;71.89
27685;BME280;46113;50.130;8.526;2023-02-11T08:11:17;100868.59;;;-0.32;71.12
27685;BME280;46113;50.130;8.526;2023-02-11T08:13:44;100873.09;;;-0.82;71.60
27685;BME280;46113;50.130;8.526;2023-02-11T08:16:21;100877.28;;;-0.91;72.20
27685;BME280;46113;50.130;8.526;2023-02-11T08:18:48;100879.28;;;-0.74;71.64
27685;BME280;46113;50.130;8.526;2023-02-11T08:21:16;100882.94;;;-0.61;70.88
27685;BME280;46113;50.130;8.526;2023-02-11T08:23:43;100887.22;;;-0.66;70.76
27685;BME280;46113;50.130;8.526;2023-02-11T08:26:13;100892.03;;;-0.31;71.74
27685;BME280;46113;50.130;8.526;2023-02-11T08:28:42;100891.38;;;-0.14;70.68
27685;BME280;46113;50.130;8.526;2023-02-11T08:31:16;100888.50;;;-0.36;70.46
27685;BME280;46113;50.130;8.526;2023-02-11T08:33:43;100886.19;;;-0.13;70.69
27685;BME280;46113;50.130;8.526;2023-02-11T08:36:19;100895.72;;;-0.13;68.77
27685;BME280;46113;50.130;8.526;2023-02-11T08:38:46;100893.91;;;-0.20;69.51
27685;BME280;46113;50.130;8.526;2023-02-11T08:41:13;100894.69;;;-0.26;70.83
27685;BME280;46113;50.130;8.526;2023-02-11T08:43:42;100897.81;;;-0.52;72.25
27685;BME280;46113;50.130;8.526;2023-02-11T08:46:13;100889.84;;;0.02;70.33
27685;BME280;46113;50.130;8.526;2023-02-11T08:48:40;100885.25;;;-0.16;70.79
27685;BME280;46113;50.130;8.526;2023-02-11T08:51:09;100904.66;;;-0.57;71.30
27685;BME280;46113;50.130;8.526;2023-02-11T08:53:36;100893.94;;;-0.16;70.70
27685;BME280;46113;50.130;8.526;2023-02-11T08:56:04;100893.69;;;0.38;69.07
27685;BME280;46113;50.130;8.526;2023-02-11T08:58:31;100885.31;;;0.70;68.33
27685;BME280;46113;50.130;8.526;2023-02-11T09:00:58;100889.50;;;0.54;67.29
27685;BME280;46113;50.130;8.526;2023-02-11T09:03:25;100891.63;;;0.97;66.54
27685;BME280;46113;50.130;8.526;2023-02-11T09:05:52;100903.16;;;0.32;68.72
27685;BME280;46113;50.130;8.526;2023-02-11T09:08:19;100900.47;;;0.22;69.91
27685;BME280;46113;50.130;8.526;2023-02-11T09:10:46;100901.78;;;0.68;68.02
27685;BME280;46113;50.130;8.526;2023-02-11T09:13:13;100903.94;;;0.23;68.86
27685;BME280;46113;50.130;8.526;2023-02-11T09:15:44;100905.25;;;-0.12;69.48
27685;BME280;46113;50.130;8.526;2023-02-11T09:18:11;100905.84;;;0.38;68.84
27685;BME280;46113;50.130;8.526;2023-02-11T09:20:37;100898.16;;;-0.24;70.07
27685;BME280;46113;50.130;8.526;2023-02-11T09:23:04;100901.22;;;0.12;69.71
27685;BME280;46113;50.130;8.526;2023-02-11T09:25:30;100900.81;;;0.55;69.19
27685;BME280;46113;50.130;8.526;2023-02-11T09:27:57;100900.84;;;0.61;67.70
27685;BME280;46113;50.130;8.526;2023-02-11T09:30:24;100902.59;;;0.62;66.42
27685;BME280;46113;50.130;8.526;2023-02-11T09:32:50;100909.38;;;0.45;67.45
27685;BME280;46113;50.130;8.526;2023-02-11T09:35:17;100906.06;;;0.61;66.99
27685;BME280;46113;50.130;8.526;2023-02-11T09:37:44;100918.34;;;0.73;66.69
27685;BME280;46113;50.130;8.526;2023-02-11T09:40:11;100924.38;;;0.66;66.71
27685;BME280;46113;50.130;8.526;2023-02-11T09:42:44;100919.09;;;0.58;66.72
27685;BME280;46113;50.130;8.526;2023-02-11T09:45:16;100921.06;;;0.02;69.91
27685;BME280;46113;50.130;8.526;2023-02-11T09:48:17;100919.56;;;0.23;69.27
27685;BME280;46113;50.130;8.526;2023-02-11T09:50:54;100914.63;;;0.46;68.38
27685;BME280;46113;50.130;8.526;2023-02-11T09:53:27;100915.09;;;0.11;68.52
27685;BME280;46113;50.130;8.526;2023-02-11T09:55:57;100914.44;;;0.30;68.75
27685;BME280;46113;50.130;8.526;2023-02-11T09:58:27;100917.72;;;0.15;68.71
27685;BME280;46113;50.130;8.526;2023-02-11T10:04:28;100913.44;;;0.18;69.23
27685;BME280;46113;50.130;8.526;2023-02-11T10:07:09;100904.13;;;0.40;69.77
27685;BME280;46113;50.130;8.526;2023-02-11T10:09:55;100905.06;;;0.48;69.53
27685;BME280;46113;50.130;8.526;2023-02-11T10:12:46;100914.59;;;0.45;69.18
27685;BME280;46113;50.130;8.526;2023-02-11T10:18:23;100905.25;;;0.65;68.83
27685;BME280;46113;50.130;8.526;2023-02-11T10:21:18;100903.38;;;0.52;67.87
27685;BME280;46113;50.130;8.526;2023-02-11T10:23:50;100907.06;;;0.74;68.61
27685;BME280;46113;50.130;8.526;2023-02-11T10:26:18;100910.75;;;0.98;68.27
27685;BME280;46113;50.130;8.526;2023-02-11T10:28:47;100901.34;;;1.14;66.90
27685;BME280;46113;50.130;8.526;2023-02-11T10:31:25;100899.69;;;1.26;67.09
27685;BME280;46113;50.130;8.526;2023-02-11T10:33:59;100912.88;;;1.44;66.62
27685;BME280;46113;50.130;8.526;2023-02-11T10:36:34;100918.28;;;1.83;65.15
27685;BME280;46113;50.130;8.526;2023-02-11T10:39:21;100909.53;;;1.75;65.49
27685;BME280;46113;50.130;8.526;2023-02-11T10:42:04;100911.47;;;0.81;65.98
27685;BME280;46113;50.130;8.526;2023-02-11T10:44:40;100920.25;;;0.91;70.00
27685;BME280;46113;50.130;8.526;2023-02-11T10:47:20;100906.69;;;1.34;66.75
27685;BME280;46113;50.130;8.526;2023-02-11T10:49:48;100916.28;;;1.39;66.66
27685;BME280;46113;50.130;8.526;2023-02-11T10:52:24;100913.69;;;1.43;65.57
27685;BME280;46113;50.130;8.526;2023-02-11T10:57:31;100906.13;;;1.92;64.64
27685;BME280;46113;50.130;8.526;2023-02-11T11:00:03;100913.13;;;1.97;63.90
27685;BME280;46113;50.130;8.526;2023-02-11T11:02:33;100908.88;;;2.21;63.73
27685;BME280;46113;50.130;8.526;2023-02-11T11:05:16;100908.88;;;2.24;63.32
27685;BME280;46113;50.130;8.526;2023-02-11T11:07:55;100909.59;;;1.86;63.87
27685;BME280;46113;50.130;8.526;2023-02-11T11:10:37;100904.41;;;1.94;64.03
27685;BME280;46113;50.130;8.526;2023-02-11T11:13:27;100901.06;;;2.34;63.72
27685;BME280;46113;50.130;8.526;2023-02-11T11:18:44;100890.34;;;1.57;65.70
27685;BME280;46113;50.130;8.526;2023-02-11T11:21:30;100880.50;;;1.16;66.67
27685;BME280;46113;50.130;8.526;2023-02-11T11:24:00;100873.53;;;1.12;67.47
27685;BME280;46113;50.130;8.526;2023-02-11T11:26:41;100876.28;;;1.33;67.55
27685;BME280;46113;50.130;8.526;2023-02-11T11:29:12;100877.22;;;1.46;66.47
27685;BME280;46113;50.130;8.526;2023-02-11T11:31:48;100882.50;;;1.62;66.18
27685;BME280;46113;50.130;8.526;2023-02-11T11:34:26;100893.00;;;1.71;65.53
27685;BME280;46113;50.130;8.526;2023-02-11T11:36:55;100898.97;;;1.47;66.09
27685;BME280;46113;50.130;8.526;2023-02-11T11:39:25;100898.28;;;1.87;65.39
27685;BME280;46113;50.130;8.526;2023-02-11T11:42:01;100887.06;;;2.05;65.07
27685;BME280;46113;50.130;8.526;2023-02-11T11:44:34;100885.19;;;1.78;65.66
27685;BME280;46113;50.130;8.526;2023-02-11T11:54:41;100894.22;;;0.94;67.57
27685;BME280;46113;50.130;8.526;2023-02-11T11:57:24;100886.66;;;1.26;67.18
27685;BME280;46113;50.130;8.526;2023-02-11T11:59:51;100894.69;;;1.60;66.40
27685;BME280;46113;50.130;8.526;2023-02-11T12:05:24;100892.78;;;1.35;67.00
27685;BME280;46113;50.130;8.526;2023-02-11T12:07:58;100894.72;;;1.68;65.40
27685;BME280;46113;50.130;8.526;2023-02-11T12:10:39;100888.69;;;1.81;64.91
27685;BME280;46113;50.130;8.526;2023-02-11T12:21:15;100891.19;;;1.58;66.63
27685;BME280;46113;50.130;8.526;2023-02-11T12:24:23;100900.28;;;0.95;67.58
27685;BME280;46113;50.130;8.526;2023-02-11T12:27:07;100891.53;;;0.87;68.04
27685;BME280;46113;50.130;8.526;2023-02-11T12:32:50;100883.34;;;1.53;67.78
27685;BME280;46113;50.130;8.526;2023-02-11T12:38:20;100873.47;;;1.05;67.60
27685;BME280;46113;50.130;8.526;2023-02-11T12:43:31;100863.50;;;1.94;66.53
27685;BME280;46113;50.130;8.526;2023-02-11T12:49:06;100875.72;;;1.95;65.95
27685;BME280;46113;50.130;8.526;2023-02-11T12:56:47;100877.44;;;1.90;65.91
27685;BME280;46113;50.130;8.526;2023-02-11T13:02:05;100871.47;;;2.25;66.02
27685;BME280;46113;50.130;8.526;2023-02-11T13:04:42;100865.34;;;2.23;65.20
27685;BME280;46113;50.130;8.526;2023-02-11T13:07:21;100857.28;;;1.59;67.37
27685;BME280;46113;50.130;8.526;2023-02-11T13:09:58;100857.13;;;1.30;68.26
27685;BME280;46113;50.130;8.526;2023-02-11T13:12:28;100849.56;;;1.86;66.94
27685;BME280;46113;50.130;8.526;2023-02-11T13:15:15;100853.91;;;1.82;67.20
27685;BME280;46113;50.130;8.526;2023-02-11T13:18:12;100850.34;;;1.60;67.78
27685;BME280;46113;50.130;8.526;2023-02-11T13:20:52;100848.66;;;1.73;67.63
27685;BME280;46113;50.130;8.526;2023-02-11T13:23:33;100859.19;;;1.96;66.83
27685;BME280;46113;50.130;8.526;2023-02-11T13:26:15;100853.81;;;1.59;67.37
27685;BME280;46113;50.130;8.526;2023-02-11T13:31:34;100858.97;;;1.46;68.61
27685;BME280;46113;50.130;8.526;2023-02-11T13:34:01;100864.84;;;1.17;69.14
27685;BME280;46113;50.130;8.526;2023-02-11T13:36:30;100857.19;;;1.44;69.50
27685;BME280;46113;50.130;8.526;2023-02-11T13:39:00;100859.84;;;1.47;68.72
27685;BME280;46113;50.130;8.526;2023-02-11T13:41:47;100866.63;;;1.21;69.00
27685;BME280;46113;50.130;8.526;2023-02-11T13:44:21;100870.03;;;1.11;70.35
27685;BME280;46113;50.130;8.526;2023-02-11T13:47:03;100864.00;;;1.17;69.31
27685;BME280;46113;50.130;8.526;2023-02-11T13:49:40;100879.84;;;1.48;69.71
27685;BME280;46113;50.130;8.526;2023-02-11T13:52:33;100866.59;;;1.17;69.56
27685;BME280;46113;50.130;8.526;2023-02-11T13:55:22;100871.78;;;1.14;70.61
27685;BME280;46113;50.130;8.526;2023-02-11T14:11:50;100876.28;;;1.33;69.86
27685;BME280;46113;50.130;8.526;2023-02-11T14:14:30;100875.31;;;1.16;70.17
27685;BME280;46113;50.130;8.526;2023-02-11T14:19:40;100876.84;;;0.96;71.28
27685;BME280;46113;50.130;8.526;2023-02-11T14:27:09;100884.88;;;1.21;71.04
27685;BME280;46113;50.130;8.526;2023-02-11T14:29:57;100880.66;;;1.42;69.95
27685;BME280;46113;50.130;8.526;2023-02-11T14:35:42;100886.69;;;1.32;69.99
27685;BME280;46113;50.130;8.526;2023-02-11T14:38:45;100890.22;;;1.43;70.16
27685;BME280;46113;50.130;8.526;2023-02-11T14:41:23;100893.69;;;1.36;70.51
27685;BME280;46113;50.130;8.526;2023-02-11T14:43:57;100891.25;;;1.69;69.68
27685;BME280;46113;50.130;8.526;2023-02-11T14:46:27;100900.00;;;1.75;68.81
27685;BME280;46113;50.130;8.526;2023-02-11T14:48:58;100902.47;;;1.55;69.28
27685;BME280;46113;50.130;8.526;2023-02-11T14:51:31;100908.53;;;1.46;69.56
27685;BME280;46113;50.130;8.526;2023-02-11T14:54:08;100908.06;;;0.89;72.20